createdAt,value
2022-08-23T13:19:31.014Z,23.72
2022-08-23T13:22:20.622Z,23.52
2022-08-23T13:28:12.398Z,23.52
2022-08-23T13:31:11.080Z,23.52
2022-08-23T13:33:41.605Z,23.51
2022-08-23T13:36:22.207Z,23.49
2022-08-23T13:38:53.072Z,23.47
2022-08-23T13:41:38.380Z,23.46
2022-08-23T13:44:16.987Z,23.47
2022-08-23T13:51:40.472Z,23.57
2022-08-23T13:54:15.674Z,23.58
2022-08-23T13:56:53.483Z,23.56
2022-08-23T13:59:41.588Z,23.53
2022-08-23T14:02:15.517Z,23.51
2022-08-23T14:04:46.643Z,23.54
2022-08-23T14:07:17.856Z,23.56
2022-08-23T14:10:11.808Z,23.59
2022-08-23T14:12:45.177Z,23.57
2022-08-23T14:15:16.984Z,23.55
2022-08-23T14:17:54.124Z,23.53
2022-08-23T14:20:46.247Z,23.51
2022-08-23T14:23:17.266Z,23.50
2022-08-23T14:25:53.636Z,23.46
2022-08-23T14:28:30.736Z,23.43
2022-08-23T14:31:12.616Z,23.43
2022-08-23T14:33:43.736Z,23.44
2022-08-23T14:36:30.052Z,23.43
2022-08-23T14:39:04.029Z,23.35
2022-08-23T14:42:21.424Z,23.21
2022-08-23T14:45:11.253Z,23.00
2022-08-23T14:47:56.245Z,22.83
2022-08-23T14:50:28.794Z,22.75
2022-08-23T14:52:59.707Z,22.75
2022-08-23T14:55:30.237Z,22.72
2022-08-23T14:58:01.490Z,22.71
2022-08-23T15:00:35.822Z,22.72
2022-08-23T15:03:11.361Z,22.64
2022-08-23T15:05:42.005Z,22.50
2022-08-23T15:08:14.128Z,22.41
2022-08-23T15:14:11.184Z,22.38
2022-08-23T15:17:42.019Z,22.35
2022-08-23T15:20:12.788Z,22.39
2022-08-23T15:22:55.437Z,22.42
2022-08-23T15:25:53.994Z,22.45
2022-08-23T15:28:44.418Z,22.48
2022-08-23T15:31:17.805Z,22.49
2022-08-23T15:34:05.000Z,22.47
2022-08-23T15:37:00.266Z,22.53
2022-08-23T15:39:59.362Z,22.57
2022-08-23T15:42:51.780Z,22.59
2022-08-23T15:45:27.787Z,22.62
2022-08-23T15:48:12.907Z,22.64
2022-08-23T15:50:55.143Z,22.64
2022-08-23T15:54:23.007Z,22.64
2022-08-23T15:56:57.246Z,22.60
2022-08-23T15:59:37.147Z,22.55
2022-08-23T16:03:20.415Z,22.52
2022-08-23T16:06:06.471Z,22.46
2022-08-23T16:08:39.410Z,22.40
2022-08-23T16:11:13.253Z,22.39
2022-08-23T16:13:51.591Z,22.39
2022-08-23T16:17:00.042Z,22.41
2022-08-23T16:27:58.705Z,22.36
2022-08-23T16:31:00.006Z,22.35
2022-08-23T16:33:31.163Z,22.37
2022-08-23T16:44:25.297Z,22.50
2022-08-23T16:46:56.255Z,22.51
2022-08-23T16:49:26.906Z,22.51
2022-08-23T16:51:57.619Z,22.55
2022-08-23T16:54:29.270Z,22.57
2022-08-23T16:56:59.905Z,22.56
2022-08-23T16:59:30.563Z,22.57
2022-08-23T17:02:04.515Z,22.58
2022-08-23T17:04:37.580Z,22.60
2022-08-23T17:07:11.119Z,22.60
2022-08-23T17:09:44.903Z,22.61
2022-08-23T17:13:12.912Z,22.62
2022-08-23T17:15:33.222Z,22.59
2022-08-23T17:18:05.216Z,22.57
2022-08-23T17:21:06.572Z,22.58
2022-08-23T17:23:40.665Z,22.59
2022-08-23T17:26:16.882Z,22.58
2022-08-23T17:28:51.366Z,22.56
2022-08-23T17:31:22.705Z,22.56
2022-08-23T17:33:53.714Z,22.56
2022-08-23T17:36:51.479Z,22.56
2022-08-23T17:39:44.240Z,22.57
2022-08-23T17:42:15.236Z,22.60
2022-08-23T17:44:46.852Z,22.61
2022-08-23T17:47:19.960Z,22.62
2022-08-23T17:49:55.755Z,22.62
2022-08-23T17:52:31.362Z,22.62
2022-08-23T17:55:03.538Z,22.61
2022-08-23T17:57:38.279Z,22.62
2022-08-23T18:00:33.230Z,22.62
2022-08-23T18:03:59.815Z,22.58
2022-08-23T18:06:31.384Z,22.57
2022-08-23T18:09:04.038Z,22.56
2022-08-23T18:15:56.227Z,22.55
2022-08-23T18:18:40.165Z,22.55
2022-08-23T18:21:14.008Z,22.56
2022-08-23T18:23:44.713Z,22.57
2022-08-23T18:26:29.667Z,22.57
2022-08-23T18:29:01.967Z,22.55
2022-08-23T18:31:33.826Z,22.54
2022-08-23T18:34:04.425Z,22.54
2022-08-23T18:36:35.497Z,22.53
2022-08-23T18:39:07.456Z,22.51
2022-08-23T18:41:38.207Z,22.48
2022-08-23T18:44:09.498Z,22.47
2022-08-23T18:46:53.986Z,22.46
2022-08-23T18:49:25.155Z,22.48
2022-08-23T18:51:56.880Z,22.48
2022-08-23T18:54:33.063Z,22.48
2022-08-23T18:57:04.545Z,22.48
2022-08-23T18:59:35.752Z,22.48
2022-08-23T19:02:16.214Z,22.46
2022-08-23T19:05:14.967Z,22.48
2022-08-23T19:08:02.252Z,22.49
2022-08-23T19:11:06.817Z,22.49
2022-08-23T19:13:53.747Z,22.47
2022-08-23T19:16:52.305Z,22.48
2022-08-23T19:19:49.330Z,22.47
2022-08-23T19:22:35.475Z,22.47
2022-08-23T19:25:20.488Z,22.47
2022-08-23T19:28:34.319Z,22.46
2022-08-23T19:32:08.456Z,22.43
2022-08-23T19:35:32.615Z,22.42
2022-08-23T19:38:39.745Z,22.41
2022-08-23T19:41:22.080Z,22.40
2022-08-23T19:43:55.833Z,22.41
2022-08-23T19:46:31.471Z,22.40
2022-08-23T19:49:06.949Z,22.41
2022-08-23T19:51:41.917Z,22.40
2022-08-23T19:54:28.084Z,22.38
2022-08-23T19:57:10.460Z,22.35
2022-08-23T19:59:57.558Z,22.35
2022-08-23T20:03:20.172Z,22.36
2022-08-23T20:06:10.403Z,22.34
2022-08-23T20:08:57.575Z,22.33
2022-08-23T20:11:49.003Z,22.32
2022-08-23T20:14:23.316Z,22.31
2022-08-23T20:17:04.033Z,22.32
2022-08-23T20:19:39.425Z,22.32
2022-08-23T20:22:35.720Z,22.33
2022-08-23T20:25:33.479Z,22.33
2022-08-23T20:28:08.885Z,22.27
2022-08-23T20:30:48.427Z,22.22
2022-08-23T20:37:01.041Z,22.11
2022-08-23T20:39:52.706Z,22.11
2022-08-23T20:42:33.008Z,22.13
2022-08-23T20:45:26.257Z,22.13
2022-08-23T20:48:14.969Z,22.13
2022-08-23T20:51:11.444Z,22.12
2022-08-23T20:54:20.920Z,22.10
2022-08-23T20:57:19.156Z,22.11
2022-08-23T21:00:17.785Z,22.13
2022-08-23T21:03:14.034Z,22.13
2022-08-23T21:06:08.761Z,22.10
2022-08-23T21:15:48.489Z,22.16
2022-08-23T21:18:23.337Z,22.18
2022-08-23T21:21:20.992Z,22.18
2022-08-23T21:24:06.855Z,22.19
2022-08-23T21:27:08.839Z,22.19
2022-08-23T21:29:56.816Z,22.18
2022-08-23T21:32:28.704Z,22.17
2022-08-23T21:35:26.077Z,22.14
2022-08-23T21:38:30.475Z,22.12
2022-08-23T21:41:48.967Z,22.16
2022-08-23T21:44:25.197Z,22.19
2022-08-23T21:46:56.685Z,22.21
2022-08-23T21:49:35.776Z,22.21
2022-08-23T21:52:11.005Z,22.21
2022-08-23T21:58:50.469Z,22.23
2022-08-23T22:01:23.015Z,22.23
2022-08-23T22:04:05.005Z,22.24
2022-08-23T22:06:48.398Z,22.25
2022-08-23T22:09:27.871Z,22.26
2022-08-23T22:12:24.504Z,22.25
2022-08-23T22:15:08.637Z,22.24
2022-08-23T22:18:03.747Z,22.26
2022-08-23T22:20:35.788Z,22.29
2022-08-23T22:23:09.403Z,22.30
2022-08-23T22:25:40.597Z,22.32
2022-08-23T22:28:11.397Z,22.34
2022-08-23T22:30:44.574Z,22.35
2022-08-23T22:33:15.264Z,22.35
2022-08-23T22:36:02.918Z,22.35
2022-08-23T22:38:34.251Z,22.38
2022-08-23T22:41:05.319Z,22.37
2022-08-23T22:43:36.536Z,22.37
2022-08-23T22:46:08.550Z,22.38
2022-08-23T22:48:45.197Z,22.39
2022-08-23T22:51:23.548Z,22.39
2022-08-23T22:54:02.776Z,22.38
2022-08-23T22:56:40.054Z,22.39
2022-08-23T22:59:13.035Z,22.39
2022-08-23T23:01:50.429Z,22.39
2022-08-23T23:04:24.175Z,22.39
2022-08-23T23:06:56.686Z,22.38
2022-08-23T23:09:28.936Z,22.37
2022-08-23T23:12:00.449Z,22.38
2022-08-23T23:14:31.976Z,22.39
2022-08-23T23:17:22.572Z,22.40
2022-08-23T23:20:15.477Z,22.42
2022-08-23T23:23:16.871Z,22.42
2022-08-23T23:25:52.099Z,22.42
2022-08-23T23:28:26.657Z,22.41
2022-08-23T23:31:11.878Z,22.40
2022-08-23T23:33:51.857Z,22.41
2022-08-23T23:36:22.846Z,22.41
2022-08-23T23:38:53.663Z,22.41
2022-08-23T23:42:27.855Z,22.41
2022-08-23T23:44:59.852Z,22.38
2022-08-23T23:47:42.925Z,22.34
2022-08-23T23:50:42.444Z,22.27
2022-08-23T23:53:37.666Z,22.23
2022-08-23T23:56:17.292Z,22.22
2022-08-23T23:58:52.712Z,22.23
